Time;durP1;ratioP1;P1;durP2;ratioP2;P2;SDS_P1;SDS_P2;PMS_P1;PMS_P2;Temp;Humidity;BMP_temperature;BMP_pressure;BME280_temperature;BME280_humidity;BME280_pressure;Samples;Min_cycle;Max_cycle;Signal;HPM_P1;HPM_P2
2022/12/30 00:02:04;;;;;;;0.90;0.80;;;;;;;7.60;100.00;100155.16;5088808;28;20194;-77
2022/12/30 00:04:29;;;;;;;1.00;0.90;;;;;;;7.56;100.00;100154.31;5063327;28;20277;-75
2022/12/30 00:06:54;;;;;;;1.43;0.93;;;;;;;7.52;100.00;100156.88;5060746;28;20213;-76
2022/12/30 00:09:20;;;;;;;2.27;1.20;;;;;;;7.48;100.00;100156.03;5059834;28;20192;-75
2022/12/30 00:11:45;;;;;;;2.20;0.97;;;;;;;7.46;100.00;100152.59;5059316;28;20196;-76
2022/12/30 00:34:32;;;;;;;1.43;0.70;;;;;;;7.16;100.00;100180.81;5060150;28;20371;-76
2022/12/30 00:36:58;;;;;;;5.47;0.90;;;;;;;7.10;100.00;100180.81;5061497;28;20267;-76
2022/12/30 00:39:24;;;;;;;1.23;0.70;;;;;;;7.04;100.00;100188.50;5059492;28;20182;-76
2022/12/30 00:44:33;;;;;;;0.83;0.60;;;;;;;6.86;100.00;100202.16;5051450;28;20199;-76
2022/12/30 00:46:59;;;;;;;0.80;0.60;;;;;;;6.81;100.00;100199.53;5057107;28;20593;-76
2022/12/30 00:57:37;;;;;;;1.13;0.70;;;;;;;6.52;100.00;100219.97;5061299;28;21013;-76
2022/12/30 01:00:08;;;;;;;0.80;0.80;;;;;;;6.45;100.00;100219.06;5061384;28;20193;-76
2022/12/30 01:02:33;;;;;;;1.30;0.90;;;;;;;6.38;100.00;100215.59;5061901;28;20213;-76
2022/12/30 01:04:58;;;;;;;1.37;0.80;;;;;;;6.35;100.00;100214.72;5060805;28;20607;-76
2022/12/30 01:07:24;;;;;;;1.20;0.83;;;;;;;6.31;100.00;100213.81;5064258;28;20313;-75
2022/12/30 01:09:49;;;;;;;1.73;0.90;;;;;;;6.28;100.00;100223.22;5062578;28;20190;-76
2022/12/30 01:12:15;;;;;;;2.33;0.90;;;;;;;6.24;100.00;100222.34;5061603;28;20203;-75
2022/12/30 01:14:46;;;;;;;1.10;0.93;;;;;;;6.22;100.00;100231.75;5059291;28;20197;-77
2022/12/30 01:17:14;;;;;;;1.10;0.67;;;;;;;6.20;100.00;100223.16;5061368;28;20205;-77
2022/12/30 01:19:40;;;;;;;2.10;0.80;;;;;;;6.17;100.00;100229.13;5058889;28;21102;-76
2022/12/30 01:22:06;;;;;;;2.40;0.90;;;;;;;6.14;100.00;100231.66;5062528;28;20722;-76
2022/12/30 01:24:31;;;;;;;1.63;0.80;;;;;;;6.12;100.00;100237.66;5060371;28;20184;-76
2022/12/30 01:26:57;;;;;;;1.20;0.97;;;;;;;6.07;100.00;100233.34;5060000;28;20209;-78
2022/12/30 01:29:36;;;;;;;0.97;0.87;;;;;;;6.07;100.00;100235.03;5060848;28;20287;-76
2022/12/30 01:32:04;;;;;;;1.77;1.10;;;;;;;6.03;100.00;100233.28;5059437;28;20203;-75
2022/12/30 01:34:29;;;;;;;1.27;0.90;;;;;;;5.98;100.00;100220.34;5061946;28;20208;-76
2022/12/30 01:36:54;;;;;;;1.67;1.10;;;;;;;5.93;100.00;100230.59;5062238;28;20851;-75
2022/12/30 01:39:20;;;;;;;1.43;1.00;;;;;;;5.88;100.00;100227.16;5061031;28;20203;-79
2022/12/30 01:41:46;;;;;;;1.60;1.00;;;;;;;5.83;100.00;100230.50;5060659;28;20191;-75
2022/12/30 01:44:51;;;;;;;1.23;1.03;;;;;;;5.77;100.00;100229.59;5066155;28;20209;-76
2022/12/30 01:47:26;;;;;;;1.47;1.10;;;;;;;5.71;100.00;100219.25;5066685;28;20209;-76
2022/12/30 01:49:55;;;;;;;1.87;1.20;;;;;;;5.69;100.00;100222.66;5066641;28;20536;-76
2022/12/30 01:52:24;;;;;;;3.40;1.40;;;;;;;5.67;100.00;100222.66;5067092;28;20177;-78
2022/12/30 01:54:54;;;;;;;1.30;1.20;;;;;;;5.63;100.00;100232.03;5066388;28;20676;-76
2022/12/30 01:57:19;;;;;;;1.93;1.40;;;;;;;5.61;100.00;100222.59;5066092;28;20707;-75
2022/12/30 01:59:47;;;;;;;1.20;0.90;;;;;;;5.58;100.00;100223.44;5067116;28;20234;-76
2022/12/30 02:02:13;;;;;;;1.57;1.20;;;;;;;5.51;100.00;100226.75;5068401;28;20184;-76
2022/12/30 02:04:38;;;;;;;1.40;1.20;;;;;;;5.47;100.00;100240.41;5064611;28;20191;-77
2022/12/30 02:07:25;;;;;;;2.37;1.43;;;;;;;5.43;100.00;100238.66;5065287;28;20215;-76
2022/12/30 02:09:51;;;;;;;1.60;1.23;;;;;;;5.40;100.00;100242.03;5060255;28;20191;-76
2022/12/30 02:12:16;;;;;;;1.67;1.37;;;;;;;5.38;100.00;100241.16;5065883;28;20189;-77
2022/12/30 02:14:44;;;;;;;1.43;1.20;;;;;;;5.40;100.00;100233.50;5064011;28;20575;-76
2022/12/30 02:17:53;;;;;;;1.80;1.70;;;;;;;5.40;100.00;100234.34;5065609;28;20216;-76
2022/12/30 02:20:21;;;;;;;1.77;1.53;;;;;;;5.38;100.00;100232.59;5093139;28;20190;-76
2022/12/30 02:23:05;;;;;;;2.60;1.30;;;;;;;5.34;100.00;100240.25;5092380;28;20224;-76
2022/12/30 02:26:15;;;;;;;2.27;1.30;;;;;;;5.30;100.00;100238.50;5065060;28;20218;-77
2022/12/30 02:28:51;;;;;;;1.20;1.10;;;;;;;5.26;100.00;100243.56;5064384;28;20222;-77
2022/12/30 02:31:16;;;;;;;2.10;1.27;;;;;;;5.23;100.00;100249.53;5063498;28;20179;-76
2022/12/30 02:34:02;;;;;;;1.40;1.23;;;;;;;5.21;100.00;100253.78;5061459;28;20180;-77
2022/12/30 02:36:38;;;;;;;1.33;1.23;;;;;;;5.20;100.00;100244.38;5064198;28;20206;-77
2022/12/30 02:39:15;;;;;;;1.80;1.23;;;;;;;5.24;100.00;100227.28;5065182;28;20533;-77
2022/12/30 02:44:36;;;;;;;2.10;1.70;;;;;;;5.37;100.00;100229.16;5060634;28;20198;-76
2022/12/30 02:47:17;;;;;;;1.67;1.57;;;;;;;5.39;100.00;100244.59;5061717;28;20215;-77
2022/12/30 02:52:44;;;;;;;2.30;1.40;;;;;;;5.44;100.00;100251.50;5061189;28;20800;-77
2022/12/30 02:55:10;;;;;;;1.23;1.13;;;;;;;5.44;100.00;100255.78;5061698;28;20187;-76
2022/12/30 02:57:35;;;;;;;1.70;1.03;;;;;;;5.45;100.00;100266.06;5062471;28;20216;-78
2022/12/30 03:06:04;;;;;;;1.40;1.10;;;;;;;5.36;100.00;100288.19;5065772;28;20280;-76
2022/12/30 03:08:47;;;;;;;2.90;1.30;;;;;;;5.29;100.00;100295.81;5062066;28;20205;-75
2022/12/30 03:11:16;;;;;;;1.50;1.40;;;;;;;5.21;100.00;100296.56;5064073;28;20191;-76
2022/12/30 03:14:30;;;;;;;1.63;1.23;;;;;;;5.12;100.00;100295.59;5060713;28;21028;-77
2022/12/30 03:17:01;;;;;;;2.03;1.20;;;;;;;5.05;100.00;100286.09;5063768;28;20635;-76
2022/12/30 03:19:32;;;;;;;1.30;1.20;;;;;;;4.99;100.00;100289.41;5066433;28;20227;-77
2022/12/30 03:21:59;;;;;;;1.67;1.30;;;;;;;4.95;100.00;100287.66;5065714;28;20191;-76
2022/12/30 03:27:17;;;;;;;1.10;1.00;;;;;;;4.93;100.00;100286.78;5065666;28;20238;-76
2022/12/30 03:29:47;;;;;;;2.50;0.93;;;;;;;4.96;100.00;100280.81;5062837;28;20188;-77
2022/12/30 03:32:15;;;;;;;1.97;1.30;;;;;;;5.03;100.00;100277.50;5064900;28;20191;-76
2022/12/30 03:34:41;;;;;;;1.33;1.23;;;;;;;5.09;100.00;100267.31;5062839;28;20194;-77
2022/12/30 03:37:16;;;;;;;1.67;1.10;;;;;;;5.18;100.00;100264.88;5063877;28;20220;-76
2022/12/30 03:39:47;;;;;;;2.20;1.20;;;;;;;5.24;100.00;100266.66;5065919;28;20610;-76
2022/12/30 03:42:14;;;;;;;1.90;1.20;;;;;;;5.29;100.00;100252.19;5061927;28;20675;-77
2022/12/30 03:44:42;;;;;;;1.47;1.00;;;;;;;5.28;100.00;100247.91;5062247;28;20704;-76
2022/12/30 03:47:16;;;;;;;2.40;1.40;;;;;;;5.24;100.00;100243.56;5064300;28;20212;-76
2022/12/30 03:49:42;;;;;;;1.17;0.97;;;;;;;5.17;100.00;100241.75;5064673;28;20238;-75
2022/12/30 03:52:16;;;;;;;1.30;0.90;;;;;;;5.09;100.00;100238.25;5067117;28;20197;-75
2022/12/30 03:54:42;;;;;;;1.47;1.27;;;;;;;5.00;100.00;100237.28;5062996;28;20179;-76
2022/12/30 03:57:08;;;;;;;1.90;1.17;;;;;;;4.94;100.00;100242.34;5063184;28;20265;-76
2022/12/30 03:59:33;;;;;;;2.33;1.23;;;;;;;4.88;100.00;100232.00;5065663;28;20184;-76
2022/12/30 04:01:59;;;;;;;1.47;1.00;;;;;;;4.81;100.00;100238.72;5063400;28;20184;-76
2022/12/30 04:04:24;;;;;;;2.80;1.50;;;;;;;4.75;100.00;100238.66;5059390;28;20279;-76
2022/12/30 04:06:50;;;;;;;1.77;1.30;;;;;;;4.67;100.00;100242.81;5063236;28;20714;-76
2022/12/30 04:09:15;;;;;;;1.93;1.10;;;;;;;4.60;100.00;100229.03;5063401;28;20187;-77
2022/12/30 04:11:41;;;;;;;1.80;0.97;;;;;;;4.52;100.00;100234.06;5059583;28;20194;-77
2022/12/30 04:14:07;;;;;;;2.07;1.07;;;;;;;4.45;100.00;100234.81;5060671;28;20232;-77
2022/12/30 04:16:32;;;;;;;1.40;0.80;;;;;;;4.39;100.00;100237.28;5061562;28;20257;-76
2022/12/30 04:18:57;;;;;;;2.90;1.50;;;;;;;4.34;100.00;100239.78;5063158;28;20632;-76
2022/12/30 04:21:23;;;;;;;1.73;1.03;;;;;;;4.30;100.00;100235.44;5059284;28;20185;-77
2022/12/30 04:23:48;;;;;;;2.77;1.00;;;;;;;4.27;100.00;100240.50;5061157;28;20299;-78
2022/12/30 04:26:13;;;;;;;1.47;1.00;;;;;;;4.25;100.00;100237.03;5061211;28;20190;-77
2022/12/30 04:28:39;;;;;;;1.13;0.97;;;;;;;4.24;100.00;100235.31;5063519;28;20200;-76
2022/12/30 04:31:04;;;;;;;1.33;1.17;;;;;;;4.19;100.00;100227.56;5058214;28;20183;-77
2022/12/30 04:33:31;;;;;;;1.67;1.20;;;;;;;4.13;100.00;100230.03;5060675;28;20221;-77
2022/12/30 04:35:56;;;;;;;2.60;1.10;;;;;;;4.08;100.00;100229.94;5059624;28;20615;-76
2022/12/30 04:38:21;;;;;;;2.13;1.23;;;;;;;4.04;100.00;100235.00;5064718;28;20211;-78
2022/12/30 04:40:47;;;;;;;1.70;1.23;;;;;;;3.99;100.00;100231.50;5092508;28;20171;-78
2022/12/30 04:43:12;;;;;;;2.27;1.13;;;;;;;3.95;100.00;100236.56;5093233;28;20196;-77
2022/12/30 04:45:37;;;;;;;1.73;1.17;;;;;;;3.92;100.00;100235.66;5059349;28;20188;-76
2022/12/30 04:48:03;;;;;;;7.37;6.70;;;;;;;3.89;100.00;100227.94;5061655;28;20203;-77
2022/12/30 04:50:28;;;;;;;4.70;4.13;;;;;;;3.89;100.00;100233.91;5058661;28;20187;-77
2022/12/30 04:52:54;;;;;;;3.70;2.87;;;;;;;3.83;100.00;100226.13;5062219;28;20229;-75
2022/12/30 04:55:19;;;;;;;4.13;2.57;;;;;;;3.81;100.00;100228.63;5060033;28;20194;-77
2022/12/30 04:57:44;;;;;;;2.17;1.97;;;;;;;3.78;100.00;100231.13;5058427;28;20206;-77
2022/12/30 05:00:11;;;;;;;3.10;1.73;;;;;;;3.76;100.00;100242.19;5060665;28;20192;-76
2022/12/30 05:02:37;;;;;;;1.77;1.63;;;;;;;3.75;100.00;100237.91;5060389;28;20650;-76
2022/12/30 05:05:03;;;;;;;1.40;1.23;;;;;;;3.74;100.00;100242.19;5056817;28;20206;-77
2022/12/30 05:07:28;;;;;;;2.23;1.30;;;;;;;3.72;100.00;100238.72;5064874;28;20286;-76
2022/12/30 05:09:53;;;;;;;2.87;1.57;;;;;;;3.70;100.00;100235.28;5062162;28;20239;-77
2022/12/30 05:12:18;;;;;;;2.53;1.50;;;;;;;3.69;100.00;100235.25;5057010;28;20196;-76
2022/12/30 05:14:44;;;;;;;3.23;1.60;;;;;;;3.64;100.00;100238.59;5057344;28;20333;-76
2022/12/30 05:17:09;;;;;;;2.87;1.90;;;;;;;3.61;100.00;100233.41;5058675;28;20251;-78
2022/12/30 05:19:34;;;;;;;3.43;1.80;;;;;;;3.58;100.00;100230.78;5062052;28;20284;-77
2022/12/30 05:22:00;;;;;;;2.37;2.00;;;;;;;3.54;100.00;100231.59;5059076;28;20232;-76
2022/12/30 05:27:09;;;;;;;4.10;2.70;;;;;;;3.54;100.00;100233.25;5061746;28;20218;-77
2022/12/30 05:29:34;;;;;;;2.63;2.33;;;;;;;3.52;100.00;100235.81;5057510;28;20202;-77
2022/12/30 05:32:00;;;;;;;3.73;3.43;;;;;;;3.48;100.00;100237.41;5060418;28;20192;-77
2022/12/30 05:34:25;;;;;;;4.63;3.40;;;;;;;3.44;100.00;100240.78;5058381;28;20190;-76
2022/12/30 05:36:50;;;;;;;3.03;2.83;;;;;;;3.42;100.00;100247.56;5058857;28;20208;-77
2022/12/30 05:39:15;;;;;;;3.07;2.87;;;;;;;3.38;100.00;100242.34;5053340;28;20190;-77
2022/12/30 05:41:41;;;;;;;3.73;3.43;;;;;;;3.35;100.00;100244.00;5058664;28;20187;-76
2022/12/30 05:44:06;;;;;;;3.43;3.13;;;;;;;3.31;100.00;100244.78;5054618;28;20756;-76
2022/12/30 05:46:32;;;;;;;3.23;2.63;;;;;;;3.28;100.00;100238.75;5061013;28;20218;-77
2022/12/30 05:48:57;;;;;;;3.63;2.40;;;;;;;3.25;100.00;100247.22;5059672;28;20182;-76
2022/12/30 05:51:23;;;;;;;3.20;2.43;;;;;;;3.21;100.00;100248.00;5058479;28;20187;-76
2022/12/30 05:53:48;;;;;;;2.60;2.30;;;;;;;3.16;100.00;100242.78;5059114;28;20186;-76
2022/12/30 05:56:14;;;;;;;3.47;2.30;;;;;;;3.15;100.00;100245.28;5058271;28;20214;-77
2022/12/30 05:58:39;;;;;;;3.60;2.40;;;;;;;3.16;100.00;100257.25;5059326;28;20557;-76
2022/12/30 06:01:05;;;;;;;2.43;1.90;;;;;;;3.18;100.00;100253.88;5058523;28;20304;-77
2022/12/30 06:03:30;;;;;;;2.70;1.60;;;;;;;3.15;100.00;100256.41;5057718;28;20200;-77
2022/12/30 06:06:02;;;;;;;3.57;1.87;;;;;;;3.15;100.00;100269.19;5057764;28;20985;-76
2022/12/30 06:08:28;;;;;;;1.77;1.50;;;;;;;3.12;100.00;100270.78;5058423;28;20204;-77
2022/12/30 06:10:53;;;;;;;3.23;1.60;;;;;;;3.08;100.00;100276.69;5059644;28;20186;-77
2022/12/30 06:13:19;;;;;;;1.67;1.37;;;;;;;3.04;100.00;100270.63;5056556;28;20190;-77
2022/12/30 06:15:44;;;;;;;1.80;1.50;;;;;;;3.04;100.00;100260.41;5062545;28;20927;-77
2022/12/30 06:18:09;;;;;;;2.70;1.60;;;;;;;3.04;100.00;100261.28;5061985;28;21032;-76
2022/12/30 06:20:35;;;;;;;2.47;1.80;;;;;;;3.02;100.00;100262.94;5060381;28;20222;-76
2022/12/30 06:23:00;;;;;;;1.70;1.57;;;;;;;2.97;100.00;100267.09;5057075;28;20201;-77
2022/12/30 06:25:26;;;;;;;2.83;1.73;;;;;;;2.92;100.00;100266.13;5062863;28;20184;-76
2022/12/30 06:27:51;;;;;;;1.77;1.57;;;;;;;2.86;100.00;100271.09;5059630;28;20570;-77
2022/12/30 06:30:17;;;;;;;2.50;1.43;;;;;;;2.81;100.00;100265.91;5063026;28;20192;-76
2022/12/30 06:32:42;;;;;;;2.10;1.73;;;;;;;2.77;100.00;100265.78;5060898;28;20292;-77
2022/12/30 06:35:08;;;;;;;1.77;1.40;;;;;;;2.74;100.00;100267.44;5062775;28;20198;-76
2022/12/30 06:37:33;;;;;;;1.80;1.50;;;;;;;2.72;100.00;100275.91;5063158;28;20679;-77
2022/12/30 06:39:59;;;;;;;2.10;1.57;;;;;;;2.72;100.00;100281.88;5060173;28;20268;-75
2022/12/30 06:42:24;;;;;;;1.83;1.50;;;;;;;2.70;100.00;100272.47;5063257;28;20255;-76
2022/12/30 06:44:49;;;;;;;2.60;1.90;;;;;;;2.69;100.00;100269.03;5058031;28;20221;-75
2022/12/30 06:47:15;;;;;;;2.13;1.70;;;;;;;2.68;100.00;100269.00;5058229;28;20266;-76
2022/12/30 06:49:40;;;;;;;2.17;1.90;;;;;;;2.64;100.00;100275.75;5060190;28;20193;-76
2022/12/30 06:52:05;;;;;;;1.70;1.60;;;;;;;2.59;100.00;100264.53;5063835;28;20190;-75
2022/12/30 06:54:31;;;;;;;1.93;1.70;;;;;;;2.56;100.00;100262.78;5056982;28;20178;-76
2022/12/30 06:56:56;;;;;;;2.20;2.00;;;;;;;2.54;100.00;100271.22;5063576;28;20749;-75
2022/12/30 06:59:21;;;;;;;3.20;1.90;;;;;;;2.48;100.00;100271.94;5070448;28;20285;-75
2022/12/30 07:01:47;;;;;;;1.40;1.30;;;;;;;2.43;100.00;100274.41;5095683;28;20178;-76
2022/12/30 07:04:12;;;;;;;1.37;1.13;;;;;;;2.38;100.00;100270.84;5092407;28;20206;-75
2022/12/30 07:06:37;;;;;;;2.10;1.50;;;;;;;2.35;100.00;100273.34;5066431;28;20209;-76
2022/12/30 07:09:03;;;;;;;3.57;1.80;;;;;;;2.31;100.00;100260.47;5062877;28;20550;-75
2022/12/30 07:11:28;;;;;;;1.87;1.30;;;;;;;2.28;100.00;100258.69;5065970;28;20186;-75
2022/12/30 07:13:54;;;;;;;1.43;1.33;;;;;;;2.27;100.00;100250.16;5063564;28;20231;-75
2022/12/30 07:16:19;;;;;;;1.93;1.23;;;;;;;2.28;100.00;100259.56;5066718;28;20886;-76
2022/12/30 07:18:44;;;;;;;2.33;1.50;;;;;;;2.28;100.00;100262.09;5060429;28;20234;-75
2022/12/30 07:21:10;;;;;;;2.13;1.30;;;;;;;2.27;100.00;100268.03;5062916;28;20190;-76
2022/12/30 07:23:35;;;;;;;1.53;1.40;;;;;;;2.27;100.00;100254.41;5061060;28;20198;-75
2022/12/30 07:26:01;;;;;;;2.70;1.30;;;;;;;2.29;100.00;100248.50;5069188;28;20182;-76
2022/12/30 07:28:26;;;;;;;2.20;1.50;;;;;;;2.31;100.00;100256.22;5067510;28;20205;-76
2022/12/30 07:30:51;;;;;;;1.47;1.10;;;;;;;2.32;100.00;100252.84;5064619;28;20186;-76
2022/12/30 07:33:17;;;;;;;2.77;1.50;;;;;;;2.34;100.00;100251.22;5063159;28;20243;-75
2022/12/30 07:35:42;;;;;;;2.30;1.30;;;;;;;2.34;100.00;100256.31;5063281;28;20998;-76
2022/12/30 07:38:07;;;;;;;1.33;1.23;;;;;;;2.36;100.00;100258.88;5059277;28;20210;-76
2022/12/30 07:40:33;;;;;;;1.43;1.00;;;;;;;2.37;100.00;100260.63;5061485;28;20194;-76
2022/12/30 07:42:58;;;;;;;2.17;1.30;;;;;;;2.37;100.00;100258.91;5061899;28;20292;-75
2022/12/30 07:45:23;;;;;;;1.67;1.40;;;;;;;2.38;100.00;100258.09;5063024;28;20210;-76
2022/12/30 07:47:49;;;;;;;1.53;1.40;;;;;;;2.38;100.00;100247.88;5061757;28;20368;-76
2022/12/30 07:50:14;;;;;;;1.80;1.30;;;;;;;2.41;100.00;100244.56;5065080;28;20186;-76
2022/12/30 07:52:40;;;;;;;1.70;1.30;;;;;;;2.44;100.00;100242.03;5064154;28;20197;-76
2022/12/30 07:55:06;;;;;;;2.13;1.60;;;;;;;2.48;100.00;100243.00;5065186;28;20368;-76
2022/12/30 07:57:31;;;;;;;1.50;1.40;;;;;;;2.54;100.00;100244.00;5066106;28;20202;-75
2022/12/30 07:59:56;;;;;;;2.03;1.80;;;;;;;2.59;100.00;100236.44;5066073;28;20194;-76
2022/12/30 08:02:22;;;;;;;2.23;1.60;;;;;;;2.69;100.00;100240.06;5065148;28;20235;-76
2022/12/30 08:04:48;;;;;;;1.53;1.40;;;;;;;2.80;100.00;100240.31;5064444;28;20270;-75
2022/12/30 08:07:17;;;;;;;2.17;1.57;;;;;;;2.92;100.00;100234.59;5066084;28;20288;-76
2022/12/30 08:09:43;;;;;;;1.73;1.30;;;;;;;3.01;100.00;100230.53;5063231;28;20191;-76
2022/12/30 08:12:09;;;;;;;1.93;1.57;;;;;;;3.11;100.00;100229.03;5063149;28;20201;-76
2022/12/30 08:14:34;;;;;;;2.43;1.50;;;;;;;3.21;100.00;100227.53;5065227;28;20178;-76
2022/12/30 08:17:00;;;;;;;2.67;1.17;;;;;;;3.30;100.00;100207.25;5065295;28;20217;-75
2022/12/30 08:19:25;;;;;;;1.80;1.30;;;;;;;3.38;100.00;100212.50;5064287;28;20640;-76
2022/12/30 08:21:50;;;;;;;1.33;1.23;;;;;;;3.46;100.00;100197.28;5064142;28;20908;-76
2022/12/30 08:24:15;;;;;;;2.43;1.90;;;;;;;3.54;100.00;100205.13;5064756;28;20275;-76
2022/12/30 08:26:41;;;;;;;3.67;2.60;;;;;;;3.63;100.00;100192.50;5064149;28;20214;-75
2022/12/30 08:29:06;;;;;;;2.90;2.60;;;;;;;3.73;100.00;100188.38;5064903;28;20192;-76
2022/12/30 08:31:31;;;;;;;4.83;4.37;;;;;;;3.81;100.00;100181.72;5064227;28;20701;-76
2022/12/30 08:33:57;;;;;;;11.30;10.30;;;;;;;3.90;100.00;100171.63;5064580;28;20279;-76
2022/12/30 08:36:28;;;;;;;14.60;13.30;;;;;;;4.01;100.00;100171.78;5062992;28;20197;-76
2022/12/30 08:38:56;;;;;;;10.10;9.27;;;;;;;4.12;100.00;100179.66;5064065;28;20214;-75
2022/12/30 08:41:34;;;;;;;8.93;8.13;;;;;;;4.21;100.00;100172.09;5063749;28;20658;-75
2022/12/30 08:44:00;;;;;;;6.47;5.93;;;;;;;4.30;100.00;100170.53;5064379;28;20650;-75
2022/12/30 08:46:29;;;;;;;5.10;4.60;;;;;;;4.39;100.00;100168.94;5061463;28;20232;-75
2022/12/30 08:48:54;;;;;;;3.80;3.50;;;;;;;4.49;100.00;100172.50;5064617;28;20218;-76
2022/12/30 08:51:20;;;;;;;3.37;3.03;;;;;;;4.56;100.00;100161.50;5063542;28;20221;-76
2022/12/30 08:53:46;;;;;;;2.40;2.20;;;;;;;4.64;100.00;100166.75;5062902;28;20190;-77
2022/12/30 08:56:27;;;;;;;3.10;1.93;;;;;;;4.74;100.00;100157.47;5063335;28;20264;-76
2022/12/30 08:58:53;;;;;;;2.90;1.90;;;;;;;4.80;100.00;100164.38;5061742;28;20708;-75
2022/12/30 09:01:24;;;;;;;1.93;1.60;;;;;;;4.86;100.00;100154.19;5061573;28;20186;-75
2022/12/30 09:03:51;;;;;;;2.30;1.67;;;;;;;4.91;100.00;100152.53;5057441;28;20305;-75
2022/12/30 09:06:19;;;;;;;3.60;1.60;;;;;;;4.94;100.00;100144.00;5064129;28;20192;-75
2022/12/30 09:08:45;;;;;;;2.37;1.37;;;;;;;5.00;100.00;100146.66;5064358;28;20277;-77
2022/12/30 09:11:16;;;;;;;2.60;1.43;;;;;;;5.07;100.00;100145.03;5062227;28;20716;-77
2022/12/30 09:13:42;;;;;;;1.77;1.30;;;;;;;5.12;100.00;100135.69;5063333;28;20191;-75
2022/12/30 09:16:11;;;;;;;1.50;1.30;;;;;;;5.18;100.00;100135.72;5064962;28;20186;-79
2022/12/30 09:18:37;;;;;;;2.23;1.50;;;;;;;5.24;100.00;100127.22;5065018;28;20184;-75
2022/12/30 09:21:03;;;;;;;1.93;1.43;;;;;;;5.29;100.00;100125.59;5079772;28;20206;-76
2022/12/30 09:23:29;;;;;;;1.57;1.23;;;;;;;5.34;100.00;100121.38;5095112;28;20214;-78
2022/12/30 09:25:54;;;;;;;2.37;1.70;;;;;;;5.38;100.00;100120.53;5075749;28;20267;-74
2022/12/30 09:28:19;;;;;;;2.50;1.50;;;;;;;5.42;100.00;100124.84;5064856;28;20702;-76
2022/12/30 09:30:45;;;;;;;2.63;1.67;;;;;;;5.48;100.00;100119.78;5064679;28;20772;-77
2022/12/30 09:33:10;;;;;;;2.97;2.23;;;;;;;5.53;100.00;100119.81;5057814;28;20215;-76
2022/12/30 09:35:35;;;;;;;2.87;1.87;;;;;;;5.60;100.00;100120.75;5058968;28;20731;-77
2022/12/30 09:38:05;;;;;;;3.70;1.90;;;;;;;5.67;100.00;100119.09;5061606;28;21614;-75
2022/12/30 09:40:49;;;;;;;4.40;1.63;;;;;;;5.70;100.00;100116.56;5062308;28;20187;-74
2022/12/30 09:43:32;;;;;;;1.93;1.30;;;;;;;5.74;100.00;100110.59;5060963;28;20200;-76
2022/12/30 09:46:15;;;;;;;3.90;1.40;;;;;;;5.76;100.00;100106.31;5075574;28;20185;-75
2022/12/30 09:48:46;;;;;;;1.70;1.53;;;;;;;5.84;100.00;100114.06;5061704;28;20186;-75
2022/12/30 09:51:16;;;;;;;2.60;1.40;;;;;;;5.90;100.00;100111.56;5057992;28;20184;-74
2022/12/30 09:53:59;;;;;;;2.53;1.30;;;;;;;5.98;100.00;100104.75;5055835;28;20234;-75
2022/12/30 09:56:30;;;;;;;1.73;1.43;;;;;;;6.05;100.00;100104.00;5061435;28;20187;-75
2022/12/30 09:59:00;;;;;;;2.17;1.63;;;;;;;6.12;100.00;100086.91;5061817;28;20204;-74
2022/12/30 10:01:36;;;;;;;2.47;1.40;;;;;;;6.20;100.00;100074.94;5058828;28;20210;-73
2022/12/30 10:04:02;;;;;;;3.47;1.50;;;;;;;6.27;100.00;100057.00;5057844;28;20209;-76
2022/12/30 10:06:37;;;;;;;2.53;1.93;;;;;;;6.35;100.00;100053.63;5062254;28;20192;-75
2022/12/30 10:09:39;;;;;;;1.47;1.23;;;;;;;6.45;100.00;100046.81;5060289;28;20189;-73
2022/12/30 10:12:27;;;;;;;2.27;1.47;;;;;;;6.58;100.00;100040.00;5063064;28;20190;-75
2022/12/30 10:15:01;;;;;;;3.10;1.50;;;;;;;6.69;100.00;100045.16;5065960;28;20197;-75
2022/12/30 10:17:51;;;;;;;2.27;1.30;;;;;;;6.80;100.00;100037.50;5068773;28;20216;-75
2022/12/30 10:20:33;;;;;;;1.57;1.30;;;;;;;6.94;100.00;100030.66;5058833;28;20185;-74
2022/12/30 10:23:24;;;;;;;1.43;1.13;;;;;;;7.08;100.00;100020.41;5060742;28;20621;-76
2022/12/30 10:26:04;;;;;;;2.40;1.40;;;;;;;7.17;100.00;100015.25;5064753;28;20646;-75
2022/12/30 10:28:36;;;;;;;2.43;1.43;;;;;;;7.20;100.00;100016.13;5066570;28;20242;-76
2022/12/30 10:31:03;;;;;;;2.53;1.47;;;;;;;7.25;100.00;100015.25;5061429;28;20238;-76
2022/12/30 10:33:32;;;;;;;1.60;1.20;;;;;;;7.36;100.00;100027.25;5060851;28;20209;-75
2022/12/30 10:36:16;;;;;;;1.77;1.20;;;;;;;7.47;100.00;100028.13;5061006;28;20708;-76
2022/12/30 10:38:41;;;;;;;2.03;1.20;;;;;;;7.55;100.00;100033.28;5067371;28;20213;-74
2022/12/30 10:41:36;;;;;;;2.47;1.07;;;;;;;7.62;100.00;100028.13;5065662;28;21401;-74
2022/12/30 10:44:30;;;;;;;1.93;1.03;;;;;;;7.70;100.00;100035.84;5058176;28;20245;-75
2022/12/30 10:47:20;;;;;;;2.20;1.23;;;;;;;7.77;100.00;100026.38;5060947;28;20280;-76
2022/12/30 10:50:19;;;;;;;1.73;1.07;;;;;;;7.87;100.00;100017.78;5055206;28;20206;-76
2022/12/30 10:52:46;;;;;;;2.03;1.03;;;;;;;7.94;100.00;100016.88;5058655;28;20585;-75
2022/12/30 10:55:26;;;;;;;2.37;0.90;;;;;;;8.02;100.00;100016.00;5064970;28;20230;-75
2022/12/30 10:57:59;;;;;;;1.87;0.90;;;;;;;8.07;100.00;99988.53;5060505;28;20248;-75
2022/12/30 11:00:25;;;;;;;1.47;1.00;;;;;;;8.09;100.00;99985.06;5061516;28;20221;-76
2022/12/30 11:03:00;;;;;;;3.37;1.10;;;;;;;8.13;100.00;99979.91;5063392;28;20309;-76
2022/12/30 11:05:27;;;;;;;1.67;1.00;;;;;;;8.17;100.00;99974.72;5066591;28;20189;-76
2022/12/30 11:07:56;;;;;;;1.00;0.90;;;;;;;8.26;100.00;99972.97;5063546;28;20213;-76
2022/12/30 11:10:22;;;;;;;2.00;1.00;;;;;;;8.30;100.00;99965.22;5061342;28;20815;-76
2022/12/30 11:15:49;;;;;;;1.00;0.80;;;;;;;8.40;100.00;99955.69;5062646;28;20284;-75
2022/12/30 11:18:16;;;;;;;1.03;0.80;;;;;;;8.45;100.00;99956.53;5063205;28;20213;-75
2022/12/30 11:20:42;;;;;;;1.10;0.70;;;;;;;8.48;100.00;99947.94;5061166;28;20653;-75
2022/12/30 11:23:25;;;;;;;2.40;1.00;;;;;;;8.43;100.00;99947.09;5062806;28;20252;-74
2022/12/30 11:25:51;;;;;;;2.37;1.33;;;;;;;8.49;100.00;99944.50;5067102;28;20724;-75
2022/12/30 11:28:25;;;;;;;2.40;0.70;;;;;;;8.50;100.00;99946.22;5074922;28;20206;-74
2022/12/30 11:31:02;;;;;;;1.27;0.77;;;;;;;8.55;100.00;99949.63;5091305;28;20182;-75
2022/12/30 11:33:33;;;;;;;2.37;1.07;;;;;;;8.60;100.00;99937.59;5083426;28;20178;-74
2022/12/30 11:36:12;;;;;;;1.60;0.80;;;;;;;8.68;100.00;99942.69;5064028;28;20205;-75
2022/12/30 11:38:40;;;;;;;1.70;1.07;;;;;;;8.71;100.00;99932.31;5063367;28;20904;-75
2022/12/30 11:41:18;;;;;;;1.67;0.67;;;;;;;8.73;100.00;99928.00;5062763;28;20197;-75
2022/12/30 11:43:45;;;;;;;1.07;0.80;;;;;;;8.74;100.00;99924.56;5063669;28;20212;-76
2022/12/30 11:46:14;;;;;;;2.50;1.10;;;;;;;8.73;100.00;99922.84;5063405;28;20178;-76
2022/12/30 11:48:52;;;;;;;2.00;1.00;;;;;;;8.75;100.00;99920.28;5064524;28;20670;-76
2022/12/30 11:51:22;;;;;;;1.30;1.03;;;;;;;8.77;100.00;99915.97;5061084;28;20186;-75
2022/12/30 11:53:49;;;;;;;1.57;1.03;;;;;;;8.77;100.00;99915.97;5064555;28;20186;-76
2022/12/30 11:56:23;;;;;;;1.60;0.93;;;;;;;8.76;100.00;99907.38;5062579;28;20318;-75
2022/12/30 11:58:49;;;;;;;1.40;0.77;;;;;;;8.77;100.00;99900.50;5061873;28;20209;-76
2022/12/30 12:01:15;;;;;;;1.60;0.97;;;;;;;8.80;100.00;99905.59;5066211;28;20202;-75
2022/12/30 12:03:54;;;;;;;2.73;1.00;;;;;;;8.83;100.00;99896.13;5065402;28;20773;-75
2022/12/30 12:06:19;;;;;;;1.50;0.80;;;;;;;8.87;100.00;99885.75;5059473;28;21207;-76
2022/12/30 12:08:59;;;;;;;2.03;0.93;;;;;;;8.90;100.00;99881.47;5067150;28;20276;-76
2022/12/30 12:11:32;;;;;;;1.17;0.77;;;;;;;8.95;100.00;99884.00;5061187;28;20174;-75
2022/12/30 12:14:16;;;;;;;0.93;0.70;;;;;;;9.00;100.00;99875.34;5065068;28;20182;-75
2022/12/30 12:16:54;;;;;;;1.20;0.80;;;;;;;9.07;100.00;99872.72;5059646;28;20243;-75
2022/12/30 12:19:56;;;;;;;2.07;0.93;;;;;;;9.13;100.00;99860.59;5065828;28;20201;-76
2022/12/30 12:22:30;;;;;;;1.03;0.87;;;;;;;9.18;100.00;99859.66;5063529;28;20198;-76
2022/12/30 12:25:10;;;;;;;1.43;0.80;;;;;;;9.24;100.00;99854.47;5065112;28;20202;-75
2022/12/30 12:27:35;;;;;;;0.70;0.53;;;;;;;9.27;100.00;99849.28;5058709;28;20622;-75
2022/12/30 12:30:00;;;;;;;1.30;0.70;;;;;;;9.30;100.00;99852.66;5059442;28;20217;-76